Hlavní strana
METAR-TAF:

METAR-TAF

Letiště :

Brenner Field

Falls City, Nebraska, Spojené státy americké

zeměpisná šířka: 40-04-44N, zeměpisná délka: 095-35-31W, výška: 300 m

Aktuální stav počasí

Zpráva byla vytvořena před 8 minutami, v 09:53 UTC
Východoseverovýchodní vítr 7 kt
Teplota 4°C
Vlhkost vzduchu 65%
Tlak 1010 hPa
Viditelnost: 16.1 km
slabý déšť

METAR: KFNB 240953Z AUTO 06007KT 10SM -RA 04/M02 A2982 RMK AO2 RAB11 SLP100 P0000 T00391017

Čas: 04:01 (10:01 UTC)


TAF: chybějící

Stav a předpovědi počasí z více než 4 000 letišť (zprávy METAR a TAF).

Červené a žluté tečky na mapě představují dostupné meteorologické stanice.

Když kurzor umístíte na tečku, zobrazí se název stanice.

Pak kliknutím zobrazíte stav a předpověď počasí.

Chcete-li změnit mapu, kliknutím na zelené tlačítko se znaménkem +mapu přiblížíte, kliknutím na zelené tlačítko se znaménkem – mapu oddálíte a kliknutím na zelené šipky přejdete na sousední mapy.


METAR-TAF: